createdAt,value
2019-03-10T00:01:09.476Z,68.39
2019-03-10T00:06:11.571Z,69.29
2019-03-10T00:11:13.596Z,69.61
2019-03-10T00:16:15.663Z,68.70
2019-03-10T00:21:17.790Z,68.60
2019-03-10T00:26:21.024Z,66.53
2019-03-10T00:31:23.335Z,66.59
2019-03-10T00:36:25.464Z,65.50
2019-03-10T00:42:05.257Z,64.73
2019-03-10T00:47:40.409Z,63.76
2019-03-10T00:52:45.867Z,64.44
2019-03-10T00:57:48.007Z,63.72
2019-03-10T01:02:50.180Z,63.47
2019-03-10T01:07:52.847Z,63.64
2019-03-10T01:12:55.342Z,62.62
2019-03-10T01:17:58.320Z,62.89
2019-03-10T01:23:00.431Z,62.97
2019-03-10T01:28:02.701Z,62.06
2019-03-10T01:33:43.902Z,62.76
2019-03-10T01:38:46.060Z,62.19
2019-03-10T01:43:48.124Z,62.27
2019-03-10T01:48:50.220Z,62.34
2019-03-10T01:53:52.301Z,63.17
2019-03-10T01:58:54.659Z,63.16
2019-03-10T02:03:56.785Z,63.54
2019-03-10T02:08:58.945Z,63.97
2019-03-10T02:14:01.003Z,64.87
2019-03-10T02:19:03.097Z,64.79
2019-03-10T02:24:05.196Z,65.87
2019-03-10T02:29:07.275Z,66.06
2019-03-10T02:34:09.409Z,67.57
2019-03-10T02:39:11.476Z,67.45
2019-03-10T02:44:13.562Z,67.40
2019-03-10T02:49:15.626Z,68.44
2019-03-10T02:54:18.022Z,67.68
2019-03-10T02:59:20.112Z,68.16
2019-03-10T03:04:22.226Z,68.59
2019-03-10T03:09:24.328Z,68.45
2019-03-10T03:14:26.477Z,68.15
2019-03-10T03:19:28.550Z,68.27
2019-03-10T03:24:30.897Z,68.31
2019-03-10T03:29:32.959Z,68.28
2019-03-10T03:34:35.128Z,68.95
2019-03-10T03:39:40.527Z,68.49
2019-03-10T03:44:42.630Z,68.85
2019-03-10T03:49:45.405Z,68.83
2019-03-10T03:54:47.512Z,70.02
2019-03-10T03:59:49.569Z,70.98
2019-03-10T04:04:51.676Z,71.20
2019-03-10T04:09:54.032Z,72.84
2019-03-10T04:14:56.180Z,74.38
2019-03-10T04:19:58.195Z,76.76
2019-03-10T04:25:00.431Z,77.94
2019-03-10T04:30:03.515Z,80.45
2019-03-10T04:35:05.666Z,80.74
2019-03-10T04:40:08.287Z,80.82
2019-03-10T04:45:10.334Z,82.21
2019-03-10T04:50:12.425Z,82.90
2019-03-10T04:55:34.099Z,84.54
2019-03-10T05:00:37.945Z,83.92
2019-03-10T05:05:40.087Z,85.58
2019-03-10T05:10:42.579Z,86.35
2019-03-10T05:15:44.747Z,86.94
2019-03-10T05:20:47.399Z,86.43
2019-03-10T05:25:49.465Z,86.02
2019-03-10T05:30:51.620Z,86.75
2019-03-10T05:35:54.273Z,88.51
2019-03-10T05:40:56.352Z,88.52
2019-03-10T05:45:58.796Z,88.48
2019-03-10T05:51:00.997Z,88.30
2019-03-10T05:56:03.119Z,89.24
2019-03-10T06:01:05.242Z,90.29
2019-03-10T06:06:07.318Z,88.94
2019-03-10T06:11:09.405Z,90.15
2019-03-10T06:16:11.507Z,90.23
2019-03-10T06:21:13.644Z,90.84
2019-03-10T06:26:15.783Z,91.30
2019-03-10T06:31:17.878Z,90.20
2019-03-10T06:36:19.962Z,90.55
2019-03-10T06:41:22.061Z,90.72
2019-03-10T06:46:24.241Z,90.86
2019-03-10T06:51:26.367Z,91.03
2019-03-10T06:56:28.526Z,92.29
2019-03-10T07:01:30.749Z,92.46
2019-03-10T07:06:32.867Z,92.78
2019-03-10T07:11:34.922Z,92.70
2019-03-10T07:16:36.996Z,92.02
2019-03-10T07:21:39.061Z,92.05
2019-03-10T07:26:41.175Z,91.96
2019-03-10T07:31:51.004Z,92.14
2019-03-10T07:37:14.206Z,92.65
2019-03-10T07:42:34.612Z,92.12
2019-03-10T07:47:54.875Z,92.22
2019-03-10T07:53:29.683Z,92.29
2019-03-10T07:58:54.402Z,92.52
2019-03-10T08:04:05.233Z,92.70
2019-03-10T08:09:12.189Z,92.98
2019-03-10T08:14:51.928Z,92.91
2019-03-10T08:20:08.102Z,92.27
2019-03-10T08:25:17.583Z,91.97
2019-03-10T08:30:42.583Z,91.96
2019-03-10T08:36:03.108Z,92.06
2019-03-10T08:41:24.218Z,91.50
2019-03-10T08:46:32.880Z,90.87
2019-03-10T08:51:44.309Z,91.06
2019-03-10T08:57:12.208Z,91.18
2019-03-10T09:02:26.228Z,90.83
2019-03-10T09:07:46.962Z,91.11
2019-03-10T09:13:24.439Z,91.11
2019-03-10T09:18:55.270Z,89.92
2019-03-10T09:24:15.580Z,89.92
2019-03-10T09:29:35.811Z,90.49
2019-03-10T09:34:51.474Z,90.04
2019-03-10T09:40:35.245Z,90.35
2019-03-10T09:45:45.753Z,90.33
2019-03-10T09:51:05.023Z,90.58
2019-03-10T09:56:25.608Z,88.86
2019-03-10T10:01:47.267Z,90.79
2019-03-10T10:07:18.366Z,91.41
2019-03-10T10:12:40.029Z,91.41
2019-03-10T10:18:13.994Z,90.30
2019-03-10T10:23:27.159Z,90.22
2019-03-10T10:28:45.188Z,88.12
2019-03-10T10:34:02.915Z,85.19
2019-03-10T10:39:38.968Z,86.06
2019-03-10T10:45:06.662Z,88.68
2019-03-10T10:50:40.479Z,85.90
2019-03-10T10:55:52.125Z,85.90
2019-03-10T11:01:03.406Z,84.59
2019-03-10T11:06:11.480Z,79.96
2019-03-10T11:11:30.250Z,79.96
2019-03-10T11:16:51.964Z,78.94
2019-03-10T11:22:02.116Z,78.22
2019-03-10T11:27:20.508Z,78.08
2019-03-10T11:32:29.942Z,76.31
2019-03-10T11:37:41.505Z,76.31
2019-03-10T11:42:56.846Z,74.49
2019-03-10T11:48:24.344Z,75.15
2019-03-10T11:53:34.394Z,74.99
2019-03-10T11:59:11.580Z,73.50
2019-03-10T12:04:30.040Z,73.90
2019-03-10T12:09:32.268Z,73.53
2019-03-10T12:14:34.554Z,73.49
2019-03-10T12:19:36.894Z,73.36
2019-03-10T12:24:39.039Z,69.73
2019-03-10T12:29:41.317Z,69.73
2019-03-10T12:34:43.708Z,66.70
2019-03-10T12:39:45.804Z,65.77
2019-03-10T12:44:48.160Z,66.73
2019-03-10T12:49:50.320Z,65.62
2019-03-10T12:54:52.498Z,61.97
2019-03-10T12:59:54.705Z,58.48
2019-03-10T13:05:00.115Z,59.19
2019-03-10T13:10:02.596Z,56.79
2019-03-10T13:15:06.216Z,58.80
2019-03-10T13:20:08.718Z,57.62
2019-03-10T13:25:11.145Z,57.64
2019-03-10T13:30:15.449Z,54.92
2019-03-10T13:35:17.520Z,54.52
2019-03-10T13:40:19.709Z,51.79
2019-03-10T13:45:21.910Z,48.59
2019-03-10T13:50:24.031Z,48.65
2019-03-10T13:55:26.236Z,47.50
2019-03-10T14:00:28.412Z,43.40
2019-03-10T14:05:30.529Z,39.76
2019-03-10T14:10:32.624Z,40.78
2019-03-10T14:15:34.989Z,39.88
2019-03-10T14:20:37.175Z,39.82
2019-03-10T14:25:39.346Z,39.75
2019-03-10T14:30:41.512Z,40.69
2019-03-10T14:35:43.748Z,39.88
2019-03-10T14:40:45.843Z,39.07
2019-03-10T14:45:47.947Z,39.71
2019-03-10T14:50:50.350Z,40.70
2019-03-10T14:55:52.499Z,40.18
2019-03-10T15:00:54.515Z,40.34
2019-03-10T15:05:56.887Z,40.64
2019-03-10T15:10:58.972Z,41.07
2019-03-10T15:16:01.028Z,39.96
2019-03-10T15:21:03.100Z,39.35
2019-03-10T15:26:05.206Z,36.58
2019-03-10T15:31:07.247Z,37.33
2019-03-10T15:36:19.494Z,37.73
2019-03-10T15:41:13.308Z,36.85
2019-03-10T15:46:15.750Z,38.11
2019-03-10T15:51:17.845Z,36.68
2019-03-10T15:56:19.910Z,36.81
2019-03-10T16:01:22.151Z,35.99
2019-03-10T16:06:24.252Z,36.06
2019-03-10T16:11:26.422Z,35.80
2019-03-10T16:16:28.569Z,35.88
2019-03-10T16:21:30.652Z,36.15
2019-03-10T16:26:32.753Z,36.11
2019-03-10T16:31:34.911Z,35.40
2019-03-10T16:36:37.061Z,34.88
2019-03-10T16:41:42.332Z,34.64
2019-03-10T16:46:44.535Z,35.27
2019-03-10T16:51:46.763Z,36.00
2019-03-10T16:56:48.847Z,36.07
2019-03-10T17:01:51.026Z,36.07
2019-03-10T17:06:53.264Z,36.27
2019-03-10T17:11:55.417Z,36.16
2019-03-10T17:16:57.858Z,35.40
2019-03-10T17:21:59.980Z,35.40
2019-03-10T17:27:02.051Z,34.55
2019-03-10T17:32:05.226Z,34.50
2019-03-10T17:37:07.310Z,34.52
2019-03-10T17:42:09.512Z,34.79
2019-03-10T17:47:11.656Z,35.06
2019-03-10T17:52:14.870Z,39.75
2019-03-10T17:57:17.046Z,52.86
2019-03-10T18:02:19.930Z,59.01
2019-03-10T18:07:23.698Z,61.79
2019-03-10T18:12:25.739Z,65.03
2019-03-10T18:17:27.869Z,67.68
2019-03-10T18:22:31.388Z,68.97
2019-03-10T18:27:33.559Z,69.88
2019-03-10T18:32:35.714Z,68.94
2019-03-10T18:37:37.876Z,68.64
2019-03-10T18:42:40.060Z,67.18
2019-03-10T18:47:42.252Z,66.19
2019-03-10T18:52:44.744Z,65.39
2019-03-10T18:57:46.900Z,65.37
2019-03-10T19:02:49.246Z,63.60
2019-03-10T19:07:52.037Z,63.56
2019-03-10T19:12:54.213Z,63.70
2019-03-10T19:17:56.347Z,62.74
2019-03-10T19:22:58.424Z,62.62
2019-03-10T19:28:00.574Z,62.08
2019-03-10T19:33:02.714Z,61.11
2019-03-10T19:38:04.867Z,60.67
2019-03-10T19:43:07.102Z,59.69
2019-03-10T19:48:09.238Z,59.83
2019-03-10T19:53:11.465Z,58.37
2019-03-10T19:58:13.714Z,58.61
2019-03-10T20:03:15.918Z,58.41
2019-03-10T20:08:18.088Z,58.11
2019-03-10T20:13:20.308Z,57.84
2019-03-10T20:18:28.353Z,58.25
2019-03-10T20:23:30.465Z,57.21
2019-03-10T20:28:32.610Z,56.79
2019-03-10T20:33:34.724Z,56.25
2019-03-10T20:38:36.911Z,54.54
2019-03-10T20:43:38.990Z,55.85
2019-03-10T20:48:41.125Z,57.08
2019-03-10T20:53:43.265Z,57.95
2019-03-10T20:58:45.344Z,59.31
2019-03-10T21:03:47.453Z,59.79
2019-03-10T21:08:49.585Z,60.36
2019-03-10T21:13:51.665Z,59.98
2019-03-10T21:18:53.893Z,60.13
2019-03-10T21:23:55.957Z,60.60
2019-03-10T21:28:58.056Z,60.90
2019-03-10T21:34:00.198Z,61.30
2019-03-10T21:39:02.330Z,62.42
2019-03-10T21:44:04.445Z,62.33
2019-03-10T21:49:06.576Z,62.79
2019-03-10T21:54:08.627Z,62.67
2019-03-10T21:59:10.661Z,62.62
2019-03-10T22:04:13.122Z,62.27
2019-03-10T22:09:15.133Z,61.83
2019-03-10T22:14:17.181Z,62.10
2019-03-10T22:19:22.913Z,62.23
2019-03-10T22:24:23.548Z,72.85
2019-03-10T22:29:25.634Z,72.26
2019-03-10T22:34:27.707Z,74.56
2019-03-10T22:39:29.895Z,77.23
2019-03-10T22:44:31.939Z,79.33
2019-03-10T22:49:34.020Z,78.80
2019-03-10T22:54:36.169Z,78.24
2019-03-10T22:59:38.524Z,77.62
2019-03-10T23:04:40.638Z,78.69
2019-03-10T23:09:42.716Z,78.60
2019-03-10T23:14:44.817Z,77.88
2019-03-10T23:19:46.858Z,78.95
2019-03-10T23:24:48.955Z,79.05
2019-03-10T23:29:50.989Z,79.96
2019-03-10T23:34:53.130Z,79.62
2019-03-10T23:39:55.207Z,80.45
2019-03-10T23:44:57.687Z,80.31
2019-03-10T23:50:00.044Z,80.74
2019-03-10T23:55:02.293Z,79.56
